Time;durP1;ratioP1;P1;durP2;ratioP2;P2;SDS_P1;SDS_P2;PMS_P1;PMS_P2;Temp;Humidity;BMP_temperature;BMP_pressure;BME280_temperature;BME280_humidity;BME280_pressure;Samples;Min_cycle;Max_cycle;Signal;HPM_P1;HPM_P2
2023/05/25 00:00:14;;;;;;;9.70;3.03;;;22.10;53.70;;;;;;4995104;28;20503;-78
2023/05/25 00:02:45;;;;;;;13.02;3.05;;;22.10;53.50;;;;;;4977839;28;20084;-79
2023/05/25 00:05:12;;;;;;;14.52;3.78;;;22.10;53.70;;;;;;4995037;28;20120;-79
2023/05/25 00:07:38;;;;;;;14.30;2.88;;;22.10;53.40;;;;;;4994715;28;20062;-79
2023/05/25 00:10:08;;;;;;;11.45;3.20;;;22.10;53.70;;;;;;4995170;28;20041;-78
2023/05/25 00:12:35;;;;;;;11.70;3.15;;;22.10;53.90;;;;;;4978123;28;20443;-79
2023/05/25 00:15:01;;;;;;;9.85;2.88;;;22.10;53.50;;;;;;4977246;28;20105;-80
2023/05/25 00:17:28;;;;;;;9.70;3.30;;;22.10;53.50;;;;;;4994591;28;20161;-79
2023/05/25 00:19:56;;;;;;;6.72;2.70;;;22.10;53.30;;;;;;4995073;28;20534;-79
2023/05/25 00:22:22;;;;;;;8.85;3.20;;;22.10;54.10;;;;;;4994041;28;20030;-79
2023/05/25 00:24:48;;;;;;;11.80;2.88;;;22.10;53.60;;;;;;4994646;28;20026;-79
2023/05/25 00:27:14;;;;;;;10.27;2.90;;;22.10;53.60;;;;;;4994405;28;20504;-80
2023/05/25 00:29:39;;;;;;;7.35;2.83;;;22.10;53.90;;;;;;4994575;28;20026;-80
2023/05/25 00:32:07;;;;;;;9.50;2.88;;;22.10;53.70;;;;;;4977394;28;20036;-80
2023/05/25 00:34:32;;;;;;;8.00;3.08;;;22.10;54.00;;;;;;4977023;28;20105;-80
2023/05/25 00:36:58;;;;;;;9.45;2.78;;;22.10;53.60;;;;;;4976716;28;20022;-80
2023/05/25 00:39:24;;;;;;;8.80;2.97;;;22.10;53.70;;;;;;4977046;28;20560;-81
2023/05/25 00:41:50;;;;;;;10.85;3.20;;;22.10;53.70;;;;;;4977345;28;20121;-81
2023/05/25 00:44:20;;;;;;;8.57;3.05;;;22.10;53.30;;;;;;4976736;28;20105;-81
2023/05/25 00:46:47;;;;;;;;;;;22.10;53.50;;;;;;4977283;28;20096;-80
2023/05/25 00:49:14;;;;;;;8.38;2.88;;;22.10;53.80;;;;;;4960722;28;19956;-81
2023/05/25 00:51:45;;;;;;;8.45;2.95;;;22.10;53.10;;;;;;4977357;28;20030;-80
2023/05/25 00:54:16;;;;;;;8.50;2.70;;;22.10;53.30;;;;;;4976643;28;20026;-80
2023/05/25 00:56:51;;;;;;;8.50;3.10;;;22.10;53.30;;;;;;4993997;28;20046;-80
2023/05/25 00:59:44;;;;;;;10.20;3.22;;;22.10;53.30;;;;;;4976607;28;20614;-80
2023/05/25 01:02:14;;;;;;;9.98;2.97;;;22.10;53.60;;;;;;4976206;28;20447;-80
2023/05/25 01:04:44;;;;;;;7.28;3.00;;;22.10;53.80;;;;;;4976535;28;20037;-79
2023/05/25 01:07:16;;;;;;;11.13;2.95;;;22.10;53.80;;;;;;4959992;28;20042;-79
2023/05/25 01:09:44;;;;;;;8.48;2.88;;;22.10;53.40;;;;;;4993920;28;20034;-79
2023/05/25 01:12:13;;;;;;;6.75;2.20;;;22.10;53.40;;;;;;4976451;28;20042;-81
2023/05/25 01:14:41;;;;;;;8.45;2.92;;;22.10;53.60;;;;;;4993641;28;20062;-80
2023/05/25 01:17:08;;;;;;;6.10;2.47;;;22.10;53.30;;;;;;4959837;28;20651;-80
2023/05/25 01:19:36;;;;;;;7.70;2.97;;;22.10;53.10;;;;;;4976355;28;20038;-80
2023/05/25 01:22:14;;;;;;;6.03;2.80;;;22.10;53.50;;;;;;4993717;28;20053;-82
2023/05/25 01:24:47;;;;;;;7.70;2.63;;;22.10;53.30;;;;;;4975861;28;20118;-81
2023/05/25 01:27:42;;;;;;;5.47;2.60;;;22.00;53.40;;;;;;4975828;28;20034;-81
2023/05/25 01:30:12;;;;;;;6.95;2.60;;;22.10;53.30;;;;;;4976016;28;20038;-80
2023/05/25 01:32:41;;;;;;;9.75;3.00;;;22.10;53.60;;;;;;4976124;28;20034;-80
2023/05/25 01:35:08;;;;;;;6.70;2.67;;;22.10;53.20;;;;;;4944211;28;20372;-80
2023/05/25 01:37:39;;;;;;;11.95;2.90;;;22.00;53.70;;;;;;4993072;28;20058;-80
2023/05/25 01:40:05;;;;;;;7.28;2.70;;;22.00;53.50;;;;;;4959714;28;20117;-80
2023/05/25 01:42:31;;;;;;;7.15;2.58;;;22.00;53.40;;;;;;4993320;28;20161;-80
2023/05/25 01:44:58;;;;;;;6.60;2.30;;;22.00;53.40;;;;;;4975764;28;20097;-80
2023/05/25 01:48:07;;;;;;;5.78;2.75;;;22.00;53.40;;;;;;4959710;28;20030;-81
2023/05/25 01:50:46;;;;;;;11.35;2.90;;;22.00;53.70;;;;;;4993100;28;20054;-81
2023/05/25 01:53:19;;;;;;;;;;;22.00;53.40;;;;;;4960105;28;20404;-80
2023/05/25 01:56:07;;;;;;;6.70;2.80;;;22.00;53.30;;;;;;4975334;28;20356;-80
2023/05/25 01:58:42;;;;;;;5.93;2.72;;;22.00;53.50;;;;;;4975419;28;20084;-80
2023/05/25 02:01:10;;;;;;;8.13;2.80;;;22.00;53.20;;;;;;4975430;28;20061;-80
2023/05/25 02:03:38;;;;;;;7.13;2.35;;;22.00;53.50;;;;;;4975425;28;20065;-80
2023/05/25 02:06:04;;;;;;;6.65;2.35;;;22.00;53.10;;;;;;4975525;28;20034;-80
2023/05/25 02:08:33;;;;;;;8.27;3.08;;;22.00;53.80;;;;;;4975208;28;20034;-79
2023/05/25 02:11:00;;;;;;;9.32;2.80;;;22.00;53.50;;;;;;4959196;28;20041;-80
2023/05/25 02:13:26;;;;;;;5.97;2.67;;;22.00;54.20;;;;;;4975673;28;20030;-80
2023/05/25 02:15:52;;;;;;;9.25;2.97;;;22.00;53.70;;;;;;4974967;28;20100;-79
2023/05/25 02:18:18;;;;;;;8.10;2.70;;;22.00;53.60;;;;;;4974813;28;20480;-79
2023/05/25 02:20:44;;;;;;;6.82;2.45;;;22.00;53.40;;;;;;4975160;28;20157;-79
2023/05/25 02:23:10;;;;;;;6.55;2.80;;;22.00;53.40;;;;;;4959188;28;20038;-79
2023/05/25 02:25:37;;;;;;;6.25;2.65;;;22.00;53.50;;;;;;4975122;28;20026;-80
2023/05/25 02:28:03;;;;;;;7.18;2.60;;;22.00;53.20;;;;;;4959104;28;20097;-81
2023/05/25 02:30:29;;;;;;;5.60;2.50;;;22.00;54.00;;;;;;4974968;28;20034;-80
2023/05/25 02:32:56;;;;;;;5.93;2.72;;;22.00;53.60;;;;;;4958829;28;20496;-81
2023/05/25 02:35:22;;;;;;;10.60;2.85;;;22.00;53.90;;;;;;4974879;28;20034;-81
2023/05/25 02:37:48;;;;;;;7.05;2.47;;;22.00;54.20;;;;;;4992011;28;20030;-80
2023/05/25 02:40:15;;;;;;;7.65;2.38;;;22.00;54.20;;;;;;4958903;28;20556;-82
2023/05/25 02:42:41;;;;;;;6.15;2.35;;;22.00;53.50;;;;;;4943257;28;20065;-80
2023/05/25 02:45:09;;;;;;;9.00;2.72;;;22.00;53.70;;;;;;4991570;28;20027;-80
2023/05/25 02:47:36;;;;;;;6.88;2.70;;;21.90;53.80;;;;;;4942821;28;20382;-80
2023/05/25 02:50:03;;;;;;;6.47;2.45;;;21.90;53.80;;;;;;4992131;28;20636;-81
2023/05/25 02:52:31;;;;;;;7.15;2.50;;;21.90;54.00;;;;;;4974792;28;20496;-81
2023/05/25 02:54:58;;;;;;;6.28;2.47;;;22.00;53.90;;;;;;4958616;28;20041;-81
2023/05/25 02:57:30;;;;;;;8.27;2.90;;;21.90;54.10;;;;;;4974313;28;20054;-81
2023/05/25 02:59:57;;;;;;;6.28;2.40;;;22.00;53.70;;;;;;4974688;28;20244;-80
2023/05/25 03:02:24;;;;;;;4.82;2.47;;;22.00;54.00;;;;;;4974661;28;20030;-80
2023/05/25 03:04:52;;;;;;;7.07;2.70;;;22.00;54.10;;;;;;4974498;28;20104;-80
2023/05/25 03:07:20;;;;;;;5.10;2.50;;;22.00;54.10;;;;;;4974240;28;20062;-80
2023/05/25 03:09:48;;;;;;;;;;;22.00;53.70;;;;;;4974990;28;20568;-80
2023/05/25 03:12:14;;;;;;;5.97;2.20;;;22.00;53.80;;;;;;4974330;28;19914;-80
2023/05/25 03:14:41;;;;;;;9.57;2.40;;;22.00;53.80;;;;;;4974563;28;20496;-80
2023/05/25 03:17:07;;;;;;;7.15;2.55;;;22.00;54.10;;;;;;4974127;28;20104;-81
2023/05/25 03:19:33;;;;;;;6.68;2.35;;;22.00;53.70;;;;;;4991896;28;20077;-80
2023/05/25 03:21:59;;;;;;;6.85;2.10;;;22.00;53.60;;;;;;4974576;28;20072;-81
2023/05/25 03:24:25;;;;;;;5.13;2.20;;;22.00;54.30;;;;;;4974320;28;20022;-81
2023/05/25 03:26:53;;;;;;;6.82;2.80;;;21.90;53.60;;;;;;4974108;28;20030;-81
2023/05/25 03:29:18;;;;;;;4.80;2.20;;;21.90;53.80;;;;;;4958642;28;20035;-81
2023/05/25 03:31:45;;;;;;;7.32;2.28;;;21.90;53.30;;;;;;4958246;28;20400;-81
2023/05/25 03:34:11;;;;;;;7.38;2.50;;;22.00;53.60;;;;;;4958600;28;20432;-81
2023/05/25 03:36:37;;;;;;;4.85;2.67;;;21.90;53.80;;;;;;4974176;28;20049;-82
2023/05/25 03:39:04;;;;;;;5.28;2.67;;;21.90;54.00;;;;;;4973835;28;20031;-81
2023/05/25 03:41:30;;;;;;;8.00;2.78;;;21.90;54.20;;;;;;4974469;28;20448;-81
2023/05/25 03:43:56;;;;;;;9.88;2.60;;;21.90;53.50;;;;;;4974208;28;20029;-80
2023/05/25 03:46:22;;;;;;;9.73;2.35;;;22.00;53.80;;;;;;4974215;28;20105;-81
2023/05/25 03:48:48;;;;;;;6.95;2.20;;;21.90;54.00;;;;;;4957928;28;20045;-81
2023/05/25 03:51:15;;;;;;;5.82;2.30;;;21.90;54.20;;;;;;4958263;28;20440;-81
2023/05/25 03:53:40;;;;;;;6.18;2.13;;;21.90;53.60;;;;;;4957986;28;20056;-81
2023/05/25 03:56:07;;;;;;;7.05;3.25;;;22.00;54.00;;;;;;4991362;28;20038;-81
2023/05/25 03:58:36;;;;;;;6.78;2.40;;;22.00;53.70;;;;;;4961595;28;20034;-81
2023/05/25 04:01:02;;;;;;;5.43;2.42;;;22.00;54.60;;;;;;4977710;28;20043;-82
2023/05/25 04:03:31;;;;;;;4.97;2.38;;;21.90;53.40;;;;;;4961710;28;20400;-82
2023/05/25 04:05:59;;;;;;;7.22;2.50;;;21.90;53.70;;;;;;4977508;28;20087;-82
2023/05/25 04:08:25;;;;;;;6.85;2.75;;;22.00;53.70;;;;;;4977388;28;20038;-82
2023/05/25 04:10:51;;;;;;;9.23;2.78;;;22.00;53.50;;;;;;4961832;28;20566;-83
2023/05/25 04:13:16;;;;;;;5.30;2.40;;;21.90;53.30;;;;;;4961662;28;20053;-82
2023/05/25 04:15:42;;;;;;;4.90;2.47;;;21.90;53.20;;;;;;4961616;28;20548;-82
2023/05/25 04:18:13;;;;;;;5.72;2.65;;;22.00;53.30;;;;;;4977470;28;20117;-83
2023/05/25 04:20:39;;;;;;;6.57;2.60;;;21.90;53.20;;;;;;4961437;28;20113;-83
2023/05/25 04:23:06;;;;;;;6.22;2.58;;;22.00;53.60;;;;;;4977224;28;20061;-83
2023/05/25 04:25:32;;;;;;;8.18;2.28;;;22.00;53.70;;;;;;4961231;28;20053;-83
2023/05/25 04:27:58;;;;;;;4.95;2.22;;;22.00;53.70;;;;;;4960884;28;20484;-82
2023/05/25 04:30:42;;;;;;;4.60;2.47;;;22.00;53.90;;;;;;4963562;28;20057;-82
2023/05/25 04:33:45;;;;;;;6.25;2.45;;;22.00;53.90;;;;;;4953370;28;20159;-81
2023/05/25 04:36:26;;;;;;;7.93;2.60;;;21.90;53.50;;;;;;4935459;29;20039;-82
2023/05/25 04:38:53;;;;;;;3.05;2.00;;;22.00;53.40;;;;;;4943868;28;20081;-81
2023/05/25 04:41:19;;;;;;;7.13;2.60;;;21.90;53.40;;;;;;4977113;28;20057;-83
2023/05/25 04:43:49;;;;;;;6.47;2.55;;;22.00;53.60;;;;;;4976743;28;20096;-82
2023/05/25 04:46:16;;;;;;;5.57;2.25;;;22.00;53.60;;;;;;4961055;28;20038;-82
2023/05/25 04:48:44;;;;;;;6.78;2.47;;;22.00;53.60;;;;;;4976583;28;20191;-82
2023/05/25 04:51:11;;;;;;;5.38;2.47;;;21.90;53.40;;;;;;4960889;28;20042;-83
2023/05/25 04:53:37;;;;;;;6.18;2.60;;;22.00;53.80;;;;;;4960744;28;20072;-84
2023/05/25 04:56:03;;;;;;;5.60;2.70;;;22.00;53.40;;;;;;4944792;28;20361;-83
2023/05/25 04:58:29;;;;;;;6.70;2.65;;;22.00;53.50;;;;;;4976597;28;20018;-83
2023/05/25 05:00:55;;;;;;;6.45;2.70;;;22.00;53.30;;;;;;4976842;28;20030;-81
2023/05/25 05:03:22;;;;;;;5.50;2.25;;;22.00;53.30;;;;;;4976864;28;20030;-80
2023/05/25 05:05:50;;;;;;;5.72;2.60;;;22.00;53.40;;;;;;4960630;28;20129;-81
2023/05/25 05:08:22;;;;;;;5.63;2.50;;;22.00;53.30;;;;;;4975814;28;20386;-81
2023/05/25 05:10:48;;;;;;;7.38;2.80;;;22.00;53.40;;;;;;4976376;28;20034;-81
2023/05/25 05:13:15;;;;;;;8.13;2.42;;;22.00;53.30;;;;;;4944609;28;20038;-81
2023/05/25 05:15:41;;;;;;;7.03;2.55;;;22.00;53.30;;;;;;4960108;28;20397;-81
2023/05/25 05:18:07;;;;;;;8.70;2.60;;;22.00;53.70;;;;;;4975963;28;20041;-80
2023/05/25 05:20:33;;;;;;;5.10;2.60;;;22.00;53.50;;;;;;4960371;28;20037;-81
2023/05/25 05:22:59;;;;;;;6.70;2.55;;;22.00;53.40;;;;;;4960608;28;20030;-81
2023/05/25 05:25:26;;;;;;;6.93;2.50;;;22.00;53.80;;;;;;4944511;28;20085;-81
2023/05/25 05:27:52;;;;;;;5.82;2.30;;;22.00;53.60;;;;;;4975800;28;20026;-80
2023/05/25 05:30:24;;;;;;;8.13;2.65;;;22.00;53.90;;;;;;4960966;28;20062;-81
2023/05/25 05:32:50;;;;;;;4.97;2.40;;;22.00;53.80;;;;;;4976084;28;20026;-81
2023/05/25 05:35:17;;;;;;;5.75;2.63;;;22.00;53.60;;;;;;4976024;28;20025;-81
2023/05/25 05:37:45;;;;;;;7.75;3.00;;;22.00;53.60;;;;;;4975488;28;20034;-81
2023/05/25 05:40:12;;;;;;;6.43;2.83;;;22.00;53.80;;;;;;4959762;28;20035;-80
2023/05/25 05:42:41;;;;;;;8.30;2.50;;;22.00;53.60;;;;;;4975462;28;20465;-81
2023/05/25 05:45:08;;;;;;;8.45;2.67;;;22.00;54.00;;;;;;4944189;28;20034;-83
2023/05/25 05:47:34;;;;;;;5.93;2.47;;;22.00;53.40;;;;;;4959410;28;20031;-81
2023/05/25 05:50:00;;;;;;;5.38;2.70;;;22.00;53.50;;;;;;4975775;28;20034;-79
2023/05/25 05:52:27;;;;;;;9.65;3.15;;;22.00;53.60;;;;;;4975241;28;20030;-80
2023/05/25 05:54:53;;;;;;;7.65;2.65;;;22.00;53.30;;;;;;4995841;23;20488;-77
2023/05/25 05:57:19;;;;;;;12.52;3.22;;;22.00;53.50;;;;;;4994046;28;20097;-76
2023/05/25 05:59:46;;;;;;;13.98;2.88;;;22.10;53.50;;;;;;4994970;28;20121;-74
2023/05/25 06:02:12;;;;;;;19.23;4.22;;;22.10;55.20;;;;;;4994835;28;20100;-77
2023/05/25 06:04:38;;;;;;;17.92;6.25;;;22.00;53.90;;;;;;4978728;28;20033;-75
2023/05/25 06:07:04;;;;;;;20.38;6.40;;;22.00;52.20;;;;;;4994365;28;20037;-75
2023/05/25 06:09:30;;;;;;;27.55;7.18;;;21.80;52.50;;;;;;4994748;28;20025;-75
2023/05/25 06:11:58;;;;;;;23.25;6.97;;;21.70;52.20;;;;;;4978889;28;20109;-75
2023/05/25 06:14:24;;;;;;;22.90;6.80;;;21.70;52.20;;;;;;4994572;28;20128;-75
2023/05/25 06:16:50;;;;;;;23.27;6.32;;;21.70;52.10;;;;;;4994352;28;20061;-75
2023/05/25 06:19:19;;;;;;;22.63;7.25;;;21.60;52.20;;;;;;4993350;28;20030;-74
2023/05/25 06:21:45;;;;;;;26.02;7.20;;;21.50;52.70;;;;;;4978056;28;20038;-76
2023/05/25 06:24:10;;;;;;;49.17;8.60;;;21.50;52.30;;;;;;4994533;28;20025;-77
2023/05/25 06:26:36;;;;;;;39.72;7.03;;;21.50;52.80;;;;;;5012142;28;20473;-76
2023/05/25 06:29:02;;;;;;;25.67;7.07;;;21.40;53.10;;;;;;4978357;28;20087;-81
2023/05/25 06:31:28;;;;;;;25.67;6.25;;;21.50;53.00;;;;;;4994356;28;20031;-79
2023/05/25 06:33:54;;;;;;;34.70;6.15;;;21.60;52.90;;;;;;4994280;28;20152;-79
2023/05/25 06:36:20;;;;;;;37.90;6.28;;;21.70;52.90;;;;;;4995369;28;20052;-77
2023/05/25 06:38:46;;;;;;;30.13;5.05;;;21.80;53.70;;;;;;4994293;28;20033;-77
2023/05/25 06:41:13;;;;;;;24.55;5.50;;;21.80;52.60;;;;;;5012138;28;20396;-77
2023/05/25 06:43:41;;;;;;;18.33;5.35;;;21.80;52.30;;;;;;5011739;28;20057;-78
2023/05/25 06:46:42;;;;;;;21.70;5.20;;;21.90;52.60;;;;;;5000489;28;20045;-78
2023/05/25 06:49:08;;;;;;;21.10;5.43;;;21.90;52.50;;;;;;4992251;28;20034;-80
2023/05/25 06:51:34;;;;;;;15.85;4.80;;;21.90;52.70;;;;;;5009633;28;20033;-79
2023/05/25 06:54:00;;;;;;;22.75;5.80;;;21.90;52.50;;;;;;5011431;28;20092;-78
2023/05/25 06:56:26;;;;;;;19.77;5.13;;;22.00;52.90;;;;;;4993749;28;20041;-78
2023/05/25 06:58:52;;;;;;;19.77;5.10;;;22.00;52.60;;;;;;5011255;28;20101;-78
2023/05/25 07:01:18;;;;;;;19.65;4.50;;;21.90;52.80;;;;;;5011355;28;20116;-78
2023/05/25 07:03:43;;;;;;;11.95;4.55;;;21.90;52.80;;;;;;5011411;28;20147;-78
2023/05/25 07:06:11;;;;;;;17.42;4.85;;;22.00;52.80;;;;;;4993965;28;20463;-78
2023/05/25 07:08:37;;;;;;;15.68;4.60;;;22.00;52.80;;;;;;5011541;28;20033;-78
2023/05/25 07:11:03;;;;;;;16.13;4.68;;;22.00;52.80;;;;;;5011549;28;20033;-78
2023/05/25 07:13:28;;;;;;;17.13;4.80;;;22.00;52.80;;;;;;4993994;28;20033;-78
2023/05/25 07:15:54;;;;;;;14.68;4.30;;;22.00;52.80;;;;;;5011363;28;20038;-78
2023/05/25 07:18:20;;;;;;;20.83;4.68;;;22.00;52.80;;;;;;5011051;28;20092;-78
2023/05/25 07:20:47;;;;;;;16.00;4.13;;;22.00;52.90;;;;;;4977711;28;20133;-78
2023/05/25 07:23:12;;;;;;;12.02;3.78;;;22.00;52.90;;;;;;5011305;28;20072;-78
2023/05/25 07:25:39;;;;;;;13.38;4.00;;;22.00;53.00;;;;;;5011756;28;20411;-78
2023/05/25 07:28:06;;;;;;;13.65;4.10;;;22.00;53.50;;;;;;5010994;28;20029;-78
2023/05/25 07:30:32;;;;;;;11.88;3.50;;;22.00;53.40;;;;;;5011541;28;20519;-78
2023/05/25 07:32:58;;;;;;;15.73;3.85;;;22.00;53.00;;;;;;5015249;28;20026;-78
2023/05/25 07:35:25;;;;;;;15.02;3.97;;;22.00;53.20;;;;;;5015123;28;20018;-78
2023/05/25 07:38:03;;;;;;;13.35;4.20;;;22.00;52.90;;;;;;5015333;28;20062;-78
2023/05/25 07:40:29;;;;;;;13.63;4.07;;;22.00;52.80;;;;;;5015062;28;20049;-78
2023/05/25 07:42:55;;;;;;;10.98;3.63;;;22.00;52.70;;;;;;5015287;28;20080;-78
2023/05/25 07:45:21;;;;;;;12.43;3.97;;;22.00;52.70;;;;;;4997393;28;20507;-78
2023/05/25 07:47:48;;;;;;;12.55;4.13;;;22.00;52.80;;;;;;5014597;28;20488;-78
2023/05/25 07:50:14;;;;;;;15.00;3.90;;;22.00;52.70;;;;;;4997389;28;20581;-78
2023/05/25 07:52:41;;;;;;;11.65;3.40;;;22.00;52.80;;;;;;5015047;28;20169;-79
2023/05/25 07:55:07;;;;;;;12.02;3.75;;;22.10;52.70;;;;;;5014454;28;20083;-78
2023/05/25 07:57:33;;;;;;;14.57;3.60;;;22.00;52.80;;;;;;5014378;28;20037;-78
2023/05/25 07:59:59;;;;;;;10.20;3.45;;;22.10;52.80;;;;;;5014726;28;20083;-79
2023/05/25 08:02:25;;;;;;;8.95;3.45;;;22.10;52.80;;;;;;5014667;28;20021;-79
2023/05/25 08:04:51;;;;;;;9.27;3.80;;;22.10;52.80;;;;;;4997210;28;20480;-79
2023/05/25 08:07:20;;;;;;;10.27;3.78;;;22.10;53.30;;;;;;5014296;28;20030;-78
2023/05/25 08:09:46;;;;;;;13.07;3.58;;;22.10;52.80;;;;;;5014567;28;20042;-79
2023/05/25 08:12:12;;;;;;;13.52;3.20;;;22.10;53.10;;;;;;5015014;28;20022;-78
2023/05/25 08:14:38;;;;;;;8.90;3.70;;;22.10;52.90;;;;;;5014417;28;20045;-78
2023/05/25 08:17:03;;;;;;;10.32;3.80;;;22.10;52.70;;;;;;5013996;28;20030;-78
2023/05/25 08:19:31;;;;;;;12.15;3.55;;;22.10;52.90;;;;;;5014286;28;20515;-79
2023/05/25 08:21:57;;;;;;;11.75;3.95;;;22.10;53.80;;;;;;5014314;28;20021;-78
2023/05/25 08:24:23;;;;;;;9.52;3.30;;;22.10;53.10;;;;;;5014253;28;20022;-78
2023/05/25 08:26:48;;;;;;;7.93;3.30;;;22.10;52.90;;;;;;5014421;28;20053;-79
2023/05/25 08:29:14;;;;;;;12.13;3.70;;;22.10;52.80;;;;;;5014106;28;20026;-78
2023/05/25 08:31:42;;;;;;;7.53;3.30;;;22.10;52.80;;;;;;5014110;28;20084;-79
2023/05/25 08:34:08;;;;;;;9.23;2.83;;;22.10;52.80;;;;;;5014029;28;20121;-78
2023/05/25 08:36:34;;;;;;;7.93;3.30;;;22.10;52.80;;;;;;5013941;28;20076;-79
2023/05/25 08:39:01;;;;;;;10.82;3.10;;;22.10;52.90;;;;;;5013684;28;20072;-79
2023/05/25 08:41:28;;;;;;;10.63;3.35;;;22.10;52.90;;;;;;5014188;28;20025;-78
2023/05/25 08:43:54;;;;;;;8.75;3.25;;;22.10;52.90;;;;;;5013195;28;20069;-78
2023/05/25 08:46:32;;;;;;;9.77;3.05;;;22.10;52.80;;;;;;5013804;28;20040;-79
2023/05/25 08:49:04;;;;;;;9.57;3.08;;;22.10;52.90;;;;;;5013720;28;20500;-79
2023/05/25 08:51:36;;;;;;;9.57;3.10;;;22.10;52.90;;;;;;5014045;28;20045;-79
2023/05/25 08:54:11;;;;;;;7.78;3.20;;;22.10;53.60;;;;;;4996268;28;20516;-78
2023/05/25 08:56:52;;;;;;;11.45;3.28;;;22.10;53.10;;;;;;4995992;28;20080;-78
2023/05/25 08:59:36;;;;;;;7.55;2.97;;;22.10;53.20;;;;;;5013565;28;20026;-79
2023/05/25 09:02:26;;;;;;;12.73;3.83;;;22.10;53.10;;;;;;5013646;28;20037;-79
2023/05/25 09:04:52;;;;;;;8.13;3.17;;;22.10;52.80;;;;;;5013544;28;20084;-78
2023/05/25 09:07:19;;;;;;;8.85;2.95;;;22.10;53.10;;;;;;5013515;28;20034;-78
2023/05/25 09:09:47;;;;;;;8.40;2.95;;;22.10;52.90;;;;;;5013436;28;20100;-79
2023/05/25 09:12:14;;;;;;;8.27;2.78;;;22.10;53.50;;;;;;5013356;28;20121;-78
2023/05/25 09:14:46;;;;;;;11.45;2.85;;;22.10;52.90;;;;;;5013568;28;20039;-79
2023/05/25 09:17:14;;;;;;;10.48;3.33;;;22.10;52.90;;;;;;5013110;28;20447;-79
2023/05/25 09:19:40;;;;;;;8.93;3.20;;;22.20;52.80;;;;;;5013302;28;20026;-78
2023/05/25 09:22:06;;;;;;;10.55;3.05;;;22.10;52.90;;;;;;5013206;28;20438;-79
2023/05/25 09:24:33;;;;;;;9.05;2.85;;;22.10;52.90;;;;;;4995650;28;20029;-79
2023/05/25 09:26:59;;;;;;;9.50;3.13;;;22.10;52.80;;;;;;5012734;28;20403;-79
2023/05/25 09:29:25;;;;;;;6.57;2.78;;;22.10;52.80;;;;;;4995690;28;20033;-79
2023/05/25 09:31:51;;;;;;;9.18;3.08;;;22.10;52.90;;;;;;5012887;28;20109;-79
2023/05/25 09:34:18;;;;;;;10.63;2.88;;;22.10;52.90;;;;;;5012969;28;20026;-79
2023/05/25 09:36:44;;;;;;;6.97;3.20;;;22.10;53.50;;;;;;5012820;28;20029;-79
2023/05/25 09:39:11;;;;;;;9.38;2.55;;;22.10;53.00;;;;;;5012677;28;20026;-78
2023/05/25 09:41:40;;;;;;;6.72;2.83;;;22.10;52.90;;;;;;5012846;28;20061;-79
2023/05/25 09:44:06;;;;;;;8.57;2.90;;;22.10;52.90;;;;;;5012764;28;20080;-79
2023/05/25 09:46:35;;;;;;;9.57;2.88;;;22.10;52.80;;;;;;5012651;28;20034;-78
2023/05/25 09:49:07;;;;;;;7.95;3.17;;;22.10;53.40;;;;;;5012444;28;20101;-79
2023/05/25 09:51:35;;;;;;;7.50;2.80;;;22.10;52.90;;;;;;4995287;28;20038;-78
2023/05/25 09:54:02;;;;;;;8.02;3.00;;;22.10;53.10;;;;;;5012057;28;20096;-78
2023/05/25 09:56:31;;;;;;;8.57;3.08;;;22.10;52.70;;;;;;4994507;28;20061;-78
2023/05/25 09:58:57;;;;;;;8.23;3.00;;;22.10;53.50;;;;;;5012448;28;20101;-78
2023/05/25 10:01:24;;;;;;;8.63;3.05;;;22.10;53.00;;;;;;4994936;28;20033;-78
2023/05/25 10:03:50;;;;;;;7.90;2.55;;;22.10;52.90;;;;;;4995140;28;20233;-79
2023/05/25 10:06:17;;;;;;;9.23;3.10;;;22.10;52.80;;;;;;5012331;28;20160;-79
2023/05/25 10:08:44;;;;;;;7.25;2.72;;;22.10;52.70;;;;;;4978485;28;20042;-78
2023/05/25 10:11:13;;;;;;;6.95;3.13;;;22.10;52.80;;;;;;5012373;28;20424;-78
2023/05/25 10:13:42;;;;;;;8.10;3.30;;;22.10;52.70;;;;;;5012360;28;20065;-78
2023/05/25 10:16:16;;;;;;;6.68;2.95;;;22.10;53.30;;;;;;5012106;28;20033;-78
2023/05/25 10:18:53;;;;;;;10.68;3.10;;;22.10;52.90;;;;;;5011976;28;20392;-78
2023/05/25 10:21:21;;;;;;;8.20;2.80;;;22.10;53.20;;;;;;5012326;28;20499;-79
2023/05/25 10:23:51;;;;;;;12.15;3.13;;;22.20;53.10;;;;;;5012201;28;20071;-78
2023/05/25 10:26:24;;;;;;;4.85;2.38;;;22.10;52.50;;;;;;5012306;28;20040;-78
2023/05/25 10:28:54;;;;;;;6.25;3.28;;;22.10;52.70;;;;;;5011751;28;20030;-78
2023/05/25 10:31:20;;;;;;;8.38;3.00;;;22.10;53.00;;;;;;5011955;28;20488;-78
2023/05/25 10:33:47;;;;;;;7.80;2.83;;;22.20;52.80;;;;;;5011988;28;20029;-79
2023/05/25 10:36:13;;;;;;;7.30;2.75;;;22.10;52.80;;;;;;5011869;28;20044;-78
2023/05/25 10:38:40;;;;;;;5.75;2.60;;;22.10;52.90;;;;;;5011935;28;20032;-78
2023/05/25 10:41:09;;;;;;;8.57;3.03;;;22.10;52.90;;;;;;5011926;28;20107;-78
2023/05/25 10:43:37;;;;;;;4.57;2.38;;;22.10;52.70;;;;;;5011789;28;20026;-78
2023/05/25 10:46:05;;;;;;;5.85;2.60;;;22.10;53.20;;;;;;5011603;28;20091;-78
2023/05/25 10:48:38;;;;;;;7.05;2.95;;;22.10;53.10;;;;;;4993922;28;20037;-78
2023/05/25 10:51:05;;;;;;;6.95;2.80;;;22.10;53.10;;;;;;4994171;28;20030;-78
2023/05/25 10:53:31;;;;;;;6.28;2.60;;;22.10;52.80;;;;;;5010563;28;20514;-78
2023/05/25 10:56:05;;;;;;;7.82;3.00;;;22.10;52.80;;;;;;5011484;28;20033;-78
2023/05/25 10:58:31;;;;;;;6.63;2.90;;;22.10;53.50;;;;;;5011375;28;20026;-78
2023/05/25 11:01:07;;;;;;;6.25;2.60;;;22.10;53.00;;;;;;5011529;28;20029;-78
2023/05/25 11:03:51;;;;;;;7.47;2.65;;;22.10;52.70;;;;;;5011686;28;20117;-78
2023/05/25 11:06:22;;;;;;;6.38;2.58;;;22.10;53.40;;;;;;4993625;28;20034;-78
2023/05/25 11:09:02;;;;;;;6.68;2.95;;;22.10;53.60;;;;;;4993449;28;20491;-78
2023/05/25 11:11:44;;;;;;;7.15;2.80;;;22.10;53.00;;;;;;4993959;28;20045;-78
2023/05/25 11:14:29;;;;;;;6.40;2.60;;;22.10;53.00;;;;;;5011389;28;20093;-78
2023/05/25 11:17:16;;;;;;;6.22;2.78;;;22.20;52.80;;;;;;4993792;28;20152;-79
2023/05/25 11:19:49;;;;;;;7.13;2.97;;;22.20;52.70;;;;;;5010222;28;20054;-78
2023/05/25 11:22:20;;;;;;;5.25;2.38;;;22.20;52.60;;;;;;4993742;28;20041;-78
2023/05/25 11:24:50;;;;;;;7.47;2.63;;;22.10;52.70;;;;;;5011472;28;20483;-78
2023/05/25 11:27:23;;;;;;;5.40;2.75;;;22.10;52.80;;;;;;5011168;28;20036;-79
2023/05/25 11:29:50;;;;;;;6.72;2.55;;;22.10;52.90;;;;;;5011449;28;20334;-78
2023/05/25 11:32:16;;;;;;;5.78;2.50;;;22.10;52.80;;;;;;4993795;28;20030;-78
2023/05/25 11:34:45;;;;;;;4.30;2.53;;;22.10;52.70;;;;;;5011125;28;20084;-78
2023/05/25 11:37:14;;;;;;;6.30;2.78;;;22.10;52.70;;;;;;5010975;28;20117;-78
2023/05/25 11:39:42;;;;;;;5.97;2.70;;;22.10;52.90;;;;;;4993774;28;20096;-78
2023/05/25 11:42:10;;;;;;;7.45;2.70;;;22.10;53.00;;;;;;5011185;28;20018;-78
2023/05/25 11:44:37;;;;;;;5.82;2.67;;;22.10;53.00;;;;;;5011196;28;20042;-78
2023/05/25 11:47:08;;;;;;;9.27;3.22;;;22.10;53.30;;;;;;5010161;28;20053;-77
2023/05/25 11:49:40;;;;;;;12.30;3.03;;;22.10;52.90;;;;;;4993623;28;20846;-76
2023/05/25 11:52:06;;;;;;;12.20;3.17;;;22.10;53.20;;;;;;4992508;28;20022;-75
2023/05/25 11:54:58;;;;;;;6.25;2.83;;;22.10;53.80;;;;;;5025348;28;20171;-75
2023/05/25 11:57:24;;;;;;;6.75;2.83;;;22.10;53.50;;;;;;4975021;28;20042;-75
2023/05/25 12:00:01;;;;;;;5.28;2.30;;;22.20;53.20;;;;;;4939082;28;20504;-78
2023/05/25 12:02:37;;;;;;;9.32;2.78;;;22.20;53.30;;;;;;4973740;28;20022;-76
2023/05/25 12:05:03;;;;;;;5.03;2.75;;;22.20;53.60;;;;;;4970216;28;20094;-78
2023/05/25 12:07:30;;;;;;;11.68;3.30;;;22.20;53.10;;;;;;4964187;28;20069;-78
2023/05/25 12:10:07;;;;;;;8.73;2.95;;;22.20;53.40;;;;;;4954955;28;20067;-78
2023/05/25 12:12:39;;;;;;;15.68;3.55;;;22.20;53.40;;;;;;4971999;28;20449;-78
2023/05/25 12:15:05;;;;;;;11.35;2.90;;;22.10;53.40;;;;;;4971759;28;20041;-79
2023/05/25 12:17:33;;;;;;;8.95;3.05;;;22.20;53.50;;;;;;4954474;28;20034;-77
2023/05/25 12:19:59;;;;;;;8.32;3.25;;;22.10;53.60;;;;;;4958007;28;20093;-77
2023/05/25 12:22:24;;;;;;;8.20;3.00;;;22.10;53.40;;;;;;4975372;28;20027;-76
2023/05/25 12:24:50;;;;;;;7.07;2.70;;;22.10;53.30;;;;;;4974895;28;20027;-77
2023/05/25 12:27:19;;;;;;;12.27;3.40;;;22.10;53.50;;;;;;4975064;28;20030;-76
2023/05/25 12:29:48;;;;;;;9.40;2.83;;;22.10;53.40;;;;;;4975200;28;20069;-76
2023/05/25 12:32:15;;;;;;;8.48;3.33;;;22.10;53.90;;;;;;4957946;28;20527;-76
2023/05/25 12:34:41;;;;;;;8.00;3.05;;;22.10;53.50;;;;;;4941414;28;20035;-75
2023/05/25 12:37:25;;;;;;;5.88;2.85;;;22.10;53.40;;;;;;4941626;28;20031;-79
2023/05/25 12:39:51;;;;;;;8.98;3.33;;;22.10;53.40;;;;;;4975118;28;20086;-79
2023/05/25 12:42:16;;;;;;;8.35;2.97;;;22.10;53.50;;;;;;4957868;28;20062;-79
2023/05/25 12:44:45;;;;;;;6.70;3.28;;;22.10;53.50;;;;;;4957318;28;20023;-80
2023/05/25 12:47:18;;;;;;;7.35;2.75;;;22.10;53.50;;;;;;4974569;28;20102;-79
2023/05/25 12:49:46;;;;;;;7.88;2.90;;;22.10;53.40;;;;;;4954484;28;20035;-80
2023/05/25 12:52:59;;;;;;;5.10;2.72;;;22.10;53.50;;;;;;4954498;29;20042;-78